sensor_id;sensor_type;location;lat;lon;timestamp;P1;durP1;ratioP1;P2;durP2;ratioP2
14268;SDS011;7218;51.480;7.006;2024-02-21T00:01:33;27.92;;;11.07;;
14268;SDS011;7218;51.480;7.006;2024-02-21T00:04:01;24.85;;;10.30;;
14268;SDS011;7218;51.480;7.006;2024-02-21T00:06:28;24.20;;;10.70;;
14268;SDS011;7218;51.480;7.006;2024-02-21T00:08:54;23.27;;;10.77;;
14268;SDS011;7218;51.480;7.006;2024-02-21T00:11:20;23.40;;;10.68;;
14268;SDS011;7218;51.480;7.006;2024-02-21T00:13:47;26.00;;;10.63;;
14268;SDS011;7218;51.480;7.006;2024-02-21T00:16:13;22.25;;;11.48;;
14268;SDS011;7218;51.480;7.006;2024-02-21T00:18:41;25.38;;;10.68;;
14268;SDS011;7218;51.480;7.006;2024-02-21T00:21:08;23.75;;;10.93;;
14268;SDS011;7218;51.480;7.006;2024-02-21T00:23:40;21.25;;;10.70;;
14268;SDS011;7218;51.480;7.006;2024-02-21T00:26:06;23.13;;;10.60;;
14268;SDS011;7218;51.480;7.006;2024-02-21T00:28:33;22.92;;;11.00;;
14268;SDS011;7218;51.480;7.006;2024-02-21T00:30:59;22.58;;;10.30;;
14268;SDS011;7218;51.480;7.006;2024-02-21T00:33:25;23.70;;;10.60;;
14268;SDS011;7218;51.480;7.006;2024-02-21T00:35:52;20.25;;;10.15;;
14268;SDS011;7218;51.480;7.006;2024-02-21T00:38:20;22.58;;;11.32;;
14268;SDS011;7218;51.480;7.006;2024-02-21T00:40:46;22.92;;;10.48;;
14268;SDS011;7218;51.480;7.006;2024-02-21T00:43:13;24.55;;;11.13;;
14268;SDS011;7218;51.480;7.006;2024-02-21T00:45:39;21.02;;;10.30;;
14268;SDS011;7218;51.480;7.006;2024-02-21T00:48:06;26.17;;;11.50;;
14268;SDS011;7218;51.480;7.006;2024-02-21T00:50:33;23.65;;;11.15;;
14268;SDS011;7218;51.480;7.006;2024-02-21T00:52:59;25.55;;;11.05;;
14268;SDS011;7218;51.480;7.006;2024-02-21T00:55:27;29.92;;;11.50;;
14268;SDS011;7218;51.480;7.006;2024-02-21T00:57:53;22.95;;;11.57;;
14268;SDS011;7218;51.480;7.006;2024-02-21T01:00:20;23.27;;;10.95;;
14268;SDS011;7218;51.480;7.006;2024-02-21T01:02:47;23.90;;;10.90;;
14268;SDS011;7218;51.480;7.006;2024-02-21T01:05:13;25.15;;;10.57;;
14268;SDS011;7218;51.480;7.006;2024-02-21T01:07:39;25.48;;;11.00;;
14268;SDS011;7218;51.480;7.006;2024-02-21T01:10:06;25.02;;;11.80;;
14268;SDS011;7218;51.480;7.006;2024-02-21T01:12:35;22.98;;;10.43;;
14268;SDS011;7218;51.480;7.006;2024-02-21T01:15:01;22.42;;;10.88;;
14268;SDS011;7218;51.480;7.006;2024-02-21T01:17:28;22.60;;;11.07;;
14268;SDS011;7218;51.480;7.006;2024-02-21T01:19:54;25.45;;;10.90;;
14268;SDS011;7218;51.480;7.006;2024-02-21T01:22:21;23.85;;;10.27;;
14268;SDS011;7218;51.480;7.006;2024-02-21T01:24:47;23.65;;;10.55;;
14268;SDS011;7218;51.480;7.006;2024-02-21T01:27:15;24.55;;;11.35;;
14268;SDS011;7218;51.480;7.006;2024-02-21T01:29:43;22.17;;;10.20;;
14268;SDS011;7218;51.480;7.006;2024-02-21T01:32:11;20.85;;;10.18;;
14268;SDS011;7218;51.480;7.006;2024-02-21T01:34:38;18.40;;;9.75;;
14268;SDS011;7218;51.480;7.006;2024-02-21T01:37:04;23.27;;;10.98;;
14268;SDS011;7218;51.480;7.006;2024-02-21T01:39:32;24.80;;;10.60;;
14268;SDS011;7218;51.480;7.006;2024-02-21T01:41:59;24.13;;;10.52;;
14268;SDS011;7218;51.480;7.006;2024-02-21T01:44:25;23.58;;;10.30;;
14268;SDS011;7218;51.480;7.006;2024-02-21T01:46:53;22.50;;;10.43;;
14268;SDS011;7218;51.480;7.006;2024-02-21T01:49:20;23.52;;;9.93;;
14268;SDS011;7218;51.480;7.006;2024-02-21T01:51:47;24.65;;;10.40;;
14268;SDS011;7218;51.480;7.006;2024-02-21T01:54:14;22.92;;;9.98;;
14268;SDS011;7218;51.480;7.006;2024-02-21T01:56:43;22.70;;;9.60;;
14268;SDS011;7218;51.480;7.006;2024-02-21T01:59:11;21.10;;;10.10;;
14268;SDS011;7218;51.480;7.006;2024-02-21T02:01:39;20.02;;;9.63;;
14268;SDS011;7218;51.480;7.006;2024-02-21T02:04:08;21.52;;;10.00;;
14268;SDS011;7218;51.480;7.006;2024-02-21T02:06:35;21.45;;;9.82;;
14268;SDS011;7218;51.480;7.006;2024-02-21T02:09:01;24.63;;;10.05;;
14268;SDS011;7218;51.480;7.006;2024-02-21T02:11:28;24.10;;;9.90;;
14268;SDS011;7218;51.480;7.006;2024-02-21T02:13:54;20.85;;;9.98;;
14268;SDS011;7218;51.480;7.006;2024-02-21T02:16:21;22.67;;;10.20;;
14268;SDS011;7218;51.480;7.006;2024-02-21T02:18:47;20.08;;;9.98;;
14268;SDS011;7218;51.480;7.006;2024-02-21T02:21:16;21.08;;;9.60;;
14268;SDS011;7218;51.480;7.006;2024-02-21T02:23:52;20.42;;;10.10;;
14268;SDS011;7218;51.480;7.006;2024-02-21T02:26:19;19.98;;;9.43;;
14268;SDS011;7218;51.480;7.006;2024-02-21T02:28:46;20.58;;;9.82;;
14268;SDS011;7218;51.480;7.006;2024-02-21T02:31:12;23.15;;;9.88;;
14268;SDS011;7218;51.480;7.006;2024-02-21T02:33:39;20.65;;;10.40;;
14268;SDS011;7218;51.480;7.006;2024-02-21T02:36:06;20.20;;;9.38;;
14268;SDS011;7218;51.480;7.006;2024-02-21T02:38:32;18.77;;;9.00;;
14268;SDS011;7218;51.480;7.006;2024-02-21T02:41:00;18.08;;;9.60;;
14268;SDS011;7218;51.480;7.006;2024-02-21T02:43:26;23.15;;;9.73;;
14268;SDS011;7218;51.480;7.006;2024-02-21T02:45:53;20.13;;;9.45;;
14268;SDS011;7218;51.480;7.006;2024-02-21T02:48:20;22.27;;;10.20;;
14268;SDS011;7218;51.480;7.006;2024-02-21T02:50:47;18.52;;;9.95;;
14268;SDS011;7218;51.480;7.006;2024-02-21T02:53:14;21.10;;;9.90;;
14268;SDS011;7218;51.480;7.006;2024-02-21T02:55:41;22.35;;;8.90;;
14268;SDS011;7218;51.480;7.006;2024-02-21T02:58:08;21.23;;;9.90;;
14268;SDS011;7218;51.480;7.006;2024-02-21T03:00:35;18.98;;;8.95;;
14268;SDS011;7218;51.480;7.006;2024-02-21T03:03:01;20.15;;;9.52;;
14268;SDS011;7218;51.480;7.006;2024-02-21T03:05:29;18.77;;;9.35;;
14268;SDS011;7218;51.480;7.006;2024-02-21T03:07:55;22.92;;;9.38;;
14268;SDS011;7218;51.480;7.006;2024-02-21T03:10:22;17.73;;;8.73;;
14268;SDS011;7218;51.480;7.006;2024-02-21T03:12:49;18.88;;;9.52;;
14268;SDS011;7218;51.480;7.006;2024-02-21T03:15:19;21.98;;;9.65;;
14268;SDS011;7218;51.480;7.006;2024-02-21T03:17:45;20.33;;;9.48;;
14268;SDS011;7218;51.480;7.006;2024-02-21T03:20:12;18.40;;;9.13;;
14268;SDS011;7218;51.480;7.006;2024-02-21T03:22:38;22.67;;;9.07;;
14268;SDS011;7218;51.480;7.006;2024-02-21T03:25:06;16.27;;;8.43;;
14268;SDS011;7218;51.480;7.006;2024-02-21T03:27:33;23.40;;;9.40;;
14268;SDS011;7218;51.480;7.006;2024-02-21T03:30:00;20.92;;;8.73;;
14268;SDS011;7218;51.480;7.006;2024-02-21T03:32:28;17.27;;;8.55;;
14268;SDS011;7218;51.480;7.006;2024-02-21T03:34:54;20.95;;;9.27;;
14268;SDS011;7218;51.480;7.006;2024-02-21T03:37:21;18.67;;;8.40;;
14268;SDS011;7218;51.480;7.006;2024-02-21T03:39:48;18.25;;;8.63;;
14268;SDS011;7218;51.480;7.006;2024-02-21T03:42:14;17.67;;;8.35;;
14268;SDS011;7218;51.480;7.006;2024-02-21T03:44:41;18.50;;;8.40;;
14268;SDS011;7218;51.480;7.006;2024-02-21T03:47:07;21.15;;;8.45;;
14268;SDS011;7218;51.480;7.006;2024-02-21T03:49:36;17.63;;;8.30;;
14268;SDS011;7218;51.480;7.006;2024-02-21T03:52:03;19.23;;;8.30;;
14268;SDS011;7218;51.480;7.006;2024-02-21T03:54:30;19.67;;;8.55;;
14268;SDS011;7218;51.480;7.006;2024-02-21T03:56:56;17.73;;;8.75;;
14268;SDS011;7218;51.480;7.006;2024-02-21T03:59:23;18.33;;;8.65;;
14268;SDS011;7218;51.480;7.006;2024-02-21T04:01:51;20.08;;;9.05;;
14268;SDS011;7218;51.480;7.006;2024-02-21T04:04:17;17.98;;;8.60;;
14268;SDS011;7218;51.480;7.006;2024-02-21T04:06:48;21.58;;;8.73;;
14268;SDS011;7218;51.480;7.006;2024-02-21T04:09:15;17.17;;;8.77;;
14268;SDS011;7218;51.480;7.006;2024-02-21T04:11:41;19.23;;;8.55;;
14268;SDS011;7218;51.480;7.006;2024-02-21T04:14:08;22.70;;;7.40;;
14268;SDS011;7218;51.480;7.006;2024-02-21T04:16:36;18.35;;;8.10;;
14268;SDS011;7218;51.480;7.006;2024-02-21T04:19:02;19.08;;;8.45;;
14268;SDS011;7218;51.480;7.006;2024-02-21T04:21:29;19.33;;;8.32;;
14268;SDS011;7218;51.480;7.006;2024-02-21T04:23:57;18.75;;;8.45;;
14268;SDS011;7218;51.480;7.006;2024-02-21T04:26:23;19.30;;;7.90;;
14268;SDS011;7218;51.480;7.006;2024-02-21T04:28:50;19.40;;;8.15;;
14268;SDS011;7218;51.480;7.006;2024-02-21T04:31:16;16.67;;;8.25;;
14268;SDS011;7218;51.480;7.006;2024-02-21T04:33:43;16.25;;;7.85;;
14268;SDS011;7218;51.480;7.006;2024-02-21T04:36:09;15.20;;;7.38;;
14268;SDS011;7218;51.480;7.006;2024-02-21T04:38:35;17.63;;;7.70;;
14268;SDS011;7218;51.480;7.006;2024-02-21T04:41:05;19.10;;;7.88;;
14268;SDS011;7218;51.480;7.006;2024-02-21T04:43:31;15.50;;;7.65;;
14268;SDS011;7218;51.480;7.006;2024-02-21T04:45:58;16.27;;;7.93;;
14268;SDS011;7218;51.480;7.006;2024-02-21T04:48:25;17.05;;;8.13;;
14268;SDS011;7218;51.480;7.006;2024-02-21T04:50:51;19.08;;;7.53;;
14268;SDS011;7218;51.480;7.006;2024-02-21T04:53:18;17.73;;;8.35;;
14268;SDS011;7218;51.480;7.006;2024-02-21T04:55:44;13.63;;;7.75;;
14268;SDS011;7218;51.480;7.006;2024-02-21T04:58:12;16.55;;;7.30;;
14268;SDS011;7218;51.480;7.006;2024-02-21T05:00:38;15.90;;;6.82;;
14268;SDS011;7218;51.480;7.006;2024-02-21T05:03:05;15.73;;;7.38;;
14268;SDS011;7218;51.480;7.006;2024-02-21T05:05:31;16.08;;;7.10;;
14268;SDS011;7218;51.480;7.006;2024-02-21T05:07:58;18.00;;;7.30;;
14268;SDS011;7218;51.480;7.006;2024-02-21T05:10:25;16.98;;;7.22;;
14268;SDS011;7218;51.480;7.006;2024-02-21T05:12:51;16.65;;;7.05;;
14268;SDS011;7218;51.480;7.006;2024-02-21T05:15:19;16.27;;;6.90;;
14268;SDS011;7218;51.480;7.006;2024-02-21T05:17:45;13.15;;;6.68;;
14268;SDS011;7218;51.480;7.006;2024-02-21T05:20:12;14.90;;;7.13;;
14268;SDS011;7218;51.480;7.006;2024-02-21T05:22:38;14.63;;;7.35;;
14268;SDS011;7218;51.480;7.006;2024-02-21T05:25:05;15.63;;;6.50;;
14268;SDS011;7218;51.480;7.006;2024-02-21T05:27:32;14.60;;;6.75;;
14268;SDS011;7218;51.480;7.006;2024-02-21T05:30:00;11.32;;;6.05;;
14268;SDS011;7218;51.480;7.006;2024-02-21T05:32:28;18.42;;;7.13;;
14268;SDS011;7218;51.480;7.006;2024-02-21T05:34:54;19.45;;;6.78;;
14268;SDS011;7218;51.480;7.006;2024-02-21T05:37:23;15.20;;;6.30;;
14268;SDS011;7218;51.480;7.006;2024-02-21T05:39:49;16.23;;;6.18;;
14268;SDS011;7218;51.480;7.006;2024-02-21T05:42:16;12.25;;;5.97;;
14268;SDS011;7218;51.480;7.006;2024-02-21T05:44:42;12.82;;;6.45;;
14268;SDS011;7218;51.480;7.006;2024-02-21T05:47:09;16.58;;;6.38;;
14268;SDS011;7218;51.480;7.006;2024-02-21T05:49:39;10.55;;;5.72;;
14268;SDS011;7218;51.480;7.006;2024-02-21T05:52:05;11.52;;;6.13;;
14268;SDS011;7218;51.480;7.006;2024-02-21T05:54:32;11.75;;;5.63;;
14268;SDS011;7218;51.480;7.006;2024-02-21T05:56:59;12.00;;;5.95;;
14268;SDS011;7218;51.480;7.006;2024-02-21T05:59:25;12.23;;;6.22;;
14268;SDS011;7218;51.480;7.006;2024-02-21T06:01:55;11.75;;;6.05;;
14268;SDS011;7218;51.480;7.006;2024-02-21T06:04:23;14.40;;;6.28;;
14268;SDS011;7218;51.480;7.006;2024-02-21T06:06:50;13.80;;;6.15;;
14268;SDS011;7218;51.480;7.006;2024-02-21T06:09:17;15.27;;;5.65;;
14268;SDS011;7218;51.480;7.006;2024-02-21T06:11:43;11.65;;;5.75;;
14268;SDS011;7218;51.480;7.006;2024-02-21T06:14:11;14.43;;;5.60;;
14268;SDS011;7218;51.480;7.006;2024-02-21T06:16:37;14.85;;;5.60;;
14268;SDS011;7218;51.480;7.006;2024-02-21T06:19:04;13.63;;;6.50;;
14268;SDS011;7218;51.480;7.006;2024-02-21T06:21:30;15.57;;;5.55;;
14268;SDS011;7218;51.480;7.006;2024-02-21T06:23:58;15.55;;;5.75;;
14268;SDS011;7218;51.480;7.006;2024-02-21T06:26:24;14.30;;;5.65;;
14268;SDS011;7218;51.480;7.006;2024-02-21T06:28:51;8.98;;;5.35;;
14268;SDS011;7218;51.480;7.006;2024-02-21T06:31:18;15.23;;;5.93;;
14268;SDS011;7218;51.480;7.006;2024-02-21T06:33:45;11.93;;;5.45;;
14268;SDS011;7218;51.480;7.006;2024-02-21T06:36:13;13.27;;;5.85;;
14268;SDS011;7218;51.480;7.006;2024-02-21T06:38:40;9.32;;;4.72;;
14268;SDS011;7218;51.480;7.006;2024-02-21T06:41:15;13.57;;;5.93;;
14268;SDS011;7218;51.480;7.006;2024-02-21T06:43:43;11.25;;;5.15;;
14268;SDS011;7218;51.480;7.006;2024-02-21T06:46:10;13.50;;;5.55;;
14268;SDS011;7218;51.480;7.006;2024-02-21T06:48:36;11.05;;;5.35;;
14268;SDS011;7218;51.480;7.006;2024-02-21T06:51:03;11.60;;;5.55;;
14268;SDS011;7218;51.480;7.006;2024-02-21T06:53:30;9.18;;;4.97;;
14268;SDS011;7218;51.480;7.006;2024-02-21T06:55:56;12.75;;;5.00;;
14268;SDS011;7218;51.480;7.006;2024-02-21T06:58:24;11.77;;;5.18;;
14268;SDS011;7218;51.480;7.006;2024-02-21T07:00:51;11.73;;;5.50;;
14268;SDS011;7218;51.480;7.006;2024-02-21T07:03:17;12.40;;;5.45;;
14268;SDS011;7218;51.480;7.006;2024-02-21T07:05:44;10.85;;;4.65;;
14268;SDS011;7218;51.480;7.006;2024-02-21T07:08:10;13.13;;;5.40;;
14268;SDS011;7218;51.480;7.006;2024-02-21T07:10:36;9.80;;;5.40;;
14268;SDS011;7218;51.480;7.006;2024-02-21T07:13:03;11.13;;;5.18;;
14268;SDS011;7218;51.480;7.006;2024-02-21T07:15:31;11.43;;;4.68;;
14268;SDS011;7218;51.480;7.006;2024-02-21T07:17:58;11.32;;;4.90;;
14268;SDS011;7218;51.480;7.006;2024-02-21T07:20:25;8.75;;;5.00;;
14268;SDS011;7218;51.480;7.006;2024-02-21T07:22:51;13.48;;;5.60;;
14268;SDS011;7218;51.480;7.006;2024-02-21T07:25:17;11.02;;;5.15;;
14268;SDS011;7218;51.480;7.006;2024-02-21T07:27:44;12.35;;;5.65;;
14268;SDS011;7218;51.480;7.006;2024-02-21T07:30:11;11.32;;;5.30;;
14268;SDS011;7218;51.480;7.006;2024-02-21T07:32:39;12.80;;;5.78;;
14268;SDS011;7218;51.480;7.006;2024-02-21T07:35:06;10.05;;;5.35;;
14268;SDS011;7218;51.480;7.006;2024-02-21T07:37:35;13.60;;;5.38;;
14268;SDS011;7218;51.480;7.006;2024-02-21T07:40:02;9.23;;;4.63;;
14268;SDS011;7218;51.480;7.006;2024-02-21T07:42:29;12.07;;;4.68;;
14268;SDS011;7218;51.480;7.006;2024-02-21T07:44:56;14.63;;;5.28;;
14268;SDS011;7218;51.480;7.006;2024-02-21T07:47:22;12.60;;;4.93;;
14268;SDS011;7218;51.480;7.006;2024-02-21T07:49:50;8.93;;;4.20;;
14268;SDS011;7218;51.480;7.006;2024-02-21T07:52:17;13.10;;;5.15;;
14268;SDS011;7218;51.480;7.006;2024-02-21T07:54:43;10.20;;;5.20;;
14268;SDS011;7218;51.480;7.006;2024-02-21T07:57:10;17.60;;;5.32;;
14268;SDS011;7218;51.480;7.006;2024-02-21T07:59:36;8.07;;;4.28;;
14268;SDS011;7218;51.480;7.006;2024-02-21T08:02:03;12.48;;;4.82;;
14268;SDS011;7218;51.480;7.006;2024-02-21T08:04:31;9.95;;;4.40;;
14268;SDS011;7218;51.480;7.006;2024-02-21T08:06:59;12.85;;;4.95;;
14268;SDS011;7218;51.480;7.006;2024-02-21T08:09:29;7.68;;;4.90;;
14268;SDS011;7218;51.480;7.006;2024-02-21T08:11:56;10.80;;;4.20;;
14268;SDS011;7218;51.480;7.006;2024-02-21T08:14:22;7.30;;;4.18;;
14268;SDS011;7218;51.480;7.006;2024-02-21T08:16:50;8.30;;;3.97;;
14268;SDS011;7218;51.480;7.006;2024-02-21T08:19:18;7.82;;;3.50;;
14268;SDS011;7218;51.480;7.006;2024-02-21T08:21:44;8.75;;;4.18;;
14268;SDS011;7218;51.480;7.006;2024-02-21T08:24:13;6.78;;;3.00;;
14268;SDS011;7218;51.480;7.006;2024-02-21T08:26:39;12.10;;;3.72;;
14268;SDS011;7218;51.480;7.006;2024-02-21T08:29:06;10.00;;;4.30;;
14268;SDS011;7218;51.480;7.006;2024-02-21T08:31:33;8.95;;;3.42;;
14268;SDS011;7218;51.480;7.006;2024-02-21T08:33:59;11.68;;;4.35;;
14268;SDS011;7218;51.480;7.006;2024-02-21T08:36:29;6.38;;;3.50;;
14268;SDS011;7218;51.480;7.006;2024-02-21T08:38:57;11.55;;;4.60;;
14268;SDS011;7218;51.480;7.006;2024-02-21T08:41:25;11.55;;;4.18;;
14268;SDS011;7218;51.480;7.006;2024-02-21T08:43:52;14.02;;;4.40;;
14268;SDS011;7218;51.480;7.006;2024-02-21T08:46:19;12.43;;;4.03;;
14268;SDS011;7218;51.480;7.006;2024-02-21T08:48:46;12.90;;;4.32;;
14268;SDS011;7218;51.480;7.006;2024-02-21T08:51:13;15.88;;;4.75;;
14268;SDS011;7218;51.480;7.006;2024-02-21T08:53:39;14.05;;;4.47;;
14268;SDS011;7218;51.480;7.006;2024-02-21T08:56:06;9.85;;;4.03;;
14268;SDS011;7218;51.480;7.006;2024-02-21T08:58:34;13.60;;;4.95;;
14268;SDS011;7218;51.480;7.006;2024-02-21T09:01:02;10.60;;;4.32;;
14268;SDS011;7218;51.480;7.006;2024-02-21T09:03:30;8.63;;;4.30;;
14268;SDS011;7218;51.480;7.006;2024-02-21T09:05:57;7.95;;;4.35;;
14268;SDS011;7218;51.480;7.006;2024-02-21T09:08:24;10.50;;;4.25;;
14268;SDS011;7218;51.480;7.006;2024-02-21T09:10:50;12.48;;;4.22;;
14268;SDS011;7218;51.480;7.006;2024-02-21T09:13:17;10.25;;;4.20;;
14268;SDS011;7218;51.480;7.006;2024-02-21T09:15:45;10.15;;;3.80;;
14268;SDS011;7218;51.480;7.006;2024-02-21T09:18:11;8.85;;;3.80;;
14268;SDS011;7218;51.480;7.006;2024-02-21T09:20:38;10.38;;;4.28;;
14268;SDS011;7218;51.480;7.006;2024-02-21T09:23:04;6.93;;;4.00;;
14268;SDS011;7218;51.480;7.006;2024-02-21T09:25:31;8.02;;;3.47;;
14268;SDS011;7218;51.480;7.006;2024-02-21T09:27:57;10.30;;;4.10;;
14268;SDS011;7218;51.480;7.006;2024-02-21T09:30:24;9.15;;;3.83;;
14268;SDS011;7218;51.480;7.006;2024-02-21T09:32:52;8.98;;;3.10;;
14268;SDS011;7218;51.480;7.006;2024-02-21T09:35:19;6.43;;;2.80;;
14268;SDS011;7218;51.480;7.006;2024-02-21T09:37:47;5.10;;;2.83;;
14268;SDS011;7218;51.480;7.006;2024-02-21T09:40:14;6.40;;;2.60;;
14268;SDS011;7218;51.480;7.006;2024-02-21T09:42:42;9.38;;;3.17;;
14268;SDS011;7218;51.480;7.006;2024-02-21T09:45:10;9.27;;;2.80;;
14268;SDS011;7218;51.480;7.006;2024-02-21T09:47:44;8.15;;;3.22;;
14268;SDS011;7218;51.480;7.006;2024-02-21T09:50:20;8.43;;;3.08;;
14268;SDS011;7218;51.480;7.006;2024-02-21T09:52:49;5.63;;;2.80;;
14268;SDS011;7218;51.480;7.006;2024-02-21T09:55:17;9.25;;;3.35;;
14268;SDS011;7218;51.480;7.006;2024-02-21T09:57:44;5.95;;;3.15;;
14268;SDS011;7218;51.480;7.006;2024-02-21T10:00:12;5.88;;;3.10;;
14268;SDS011;7218;51.480;7.006;2024-02-21T10:02:46;6.97;;;2.90;;
14268;SDS011;7218;51.480;7.006;2024-02-21T10:05:13;6.28;;;2.72;;
14268;SDS011;7218;51.480;7.006;2024-02-21T10:07:41;7.30;;;2.80;;
14268;SDS011;7218;51.480;7.006;2024-02-21T10:10:08;10.40;;;3.60;;
14268;SDS011;7218;51.480;7.006;2024-02-21T10:12:35;10.18;;;3.70;;
14268;SDS011;7218;51.480;7.006;2024-02-21T10:15:01;8.38;;;3.25;;
14268;SDS011;7218;51.480;7.006;2024-02-21T10:17:28;6.50;;;3.40;;
14268;SDS011;7218;51.480;7.006;2024-02-21T10:19:54;8.00;;;3.30;;
14268;SDS011;7218;51.480;7.006;2024-02-21T10:22:21;13.68;;;4.35;;
14268;SDS011;7218;51.480;7.006;2024-02-21T10:24:49;9.30;;;4.63;;
14268;SDS011;7218;51.480;7.006;2024-02-21T10:27:16;8.02;;;3.85;;
14268;SDS011;7218;51.480;7.006;2024-02-21T10:29:42;8.25;;;4.10;;
14268;SDS011;7218;51.480;7.006;2024-02-21T10:32:15;9.50;;;3.97;;
14268;SDS011;7218;51.480;7.006;2024-02-21T10:34:42;9.00;;;3.58;;
14268;SDS011;7218;51.480;7.006;2024-02-21T10:37:09;7.32;;;3.83;;
14268;SDS011;7218;51.480;7.006;2024-02-21T10:39:37;8.75;;;3.10;;
14268;SDS011;7218;51.480;7.006;2024-02-21T10:42:05;9.07;;;3.40;;
14268;SDS011;7218;51.480;7.006;2024-02-21T10:44:33;9.40;;;3.33;;
14268;SDS011;7218;51.480;7.006;2024-02-21T10:47:00;8.30;;;3.35;;
14268;SDS011;7218;51.480;7.006;2024-02-21T10:49:33;6.90;;;3.05;;
14268;SDS011;7218;51.480;7.006;2024-02-21T10:52:06;7.32;;;3.20;;
14268;SDS011;7218;51.480;7.006;2024-02-21T10:54:39;6.82;;;3.03;;
14268;SDS011;7218;51.480;7.006;2024-02-21T10:57:12;7.57;;;3.58;;
14268;SDS011;7218;51.480;7.006;2024-02-21T10:59:40;9.00;;;3.28;;
14268;SDS011;7218;51.480;7.006;2024-02-21T11:02:06;6.50;;;3.13;;
14268;SDS011;7218;51.480;7.006;2024-02-21T11:04:33;8.95;;;3.05;;
14268;SDS011;7218;51.480;7.006;2024-02-21T11:07:02;10.30;;;3.50;;
14268;SDS011;7218;51.480;7.006;2024-02-21T11:09:30;12.63;;;3.80;;
14268;SDS011;7218;51.480;7.006;2024-02-21T11:11:57;5.95;;;3.10;;
14268;SDS011;7218;51.480;7.006;2024-02-21T11:14:27;5.50;;;3.00;;
14268;SDS011;7218;51.480;7.006;2024-02-21T11:16:57;7.93;;;3.08;;
14268;SDS011;7218;51.480;7.006;2024-02-21T11:19:25;7.20;;;3.10;;
14268;SDS011;7218;51.480;7.006;2024-02-21T11:21:53;5.88;;;3.03;;
14268;SDS011;7218;51.480;7.006;2024-02-21T11:24:27;8.60;;;3.33;;
14268;SDS011;7218;51.480;7.006;2024-02-21T11:26:55;6.90;;;3.17;;
14268;SDS011;7218;51.480;7.006;2024-02-21T11:29:23;5.20;;;2.95;;
14268;SDS011;7218;51.480;7.006;2024-02-21T11:31:51;7.63;;;2.92;;
14268;SDS011;7218;51.480;7.006;2024-02-21T11:34:18;6.22;;;2.85;;
14268;SDS011;7218;51.480;7.006;2024-02-21T11:36:49;6.03;;;3.13;;
14268;SDS011;7218;51.480;7.006;2024-02-21T11:39:20;6.97;;;3.03;;
14268;SDS011;7218;51.480;7.006;2024-02-21T11:41:48;6.65;;;3.03;;
14268;SDS011;7218;51.480;7.006;2024-02-21T11:44:34;6.32;;;3.10;;
14268;SDS011;7218;51.480;7.006;2024-02-21T11:47:04;8.60;;;3.30;;
14268;SDS011;7218;51.480;7.006;2024-02-21T11:49:35;9.18;;;3.28;;
14268;SDS011;7218;51.480;7.006;2024-02-21T11:52:03;8.68;;;3.20;;
14268;SDS011;7218;51.480;7.006;2024-02-21T11:54:30;8.57;;;3.40;;
14268;SDS011;7218;51.480;7.006;2024-02-21T11:56:57;8.57;;;3.20;;
14268;SDS011;7218;51.480;7.006;2024-02-21T11:59:23;10.65;;;3.40;;
14268;SDS011;7218;51.480;7.006;2024-02-21T12:01:50;6.40;;;3.20;;
14268;SDS011;7218;51.480;7.006;2024-02-21T12:04:19;7.80;;;3.47;;
14268;SDS011;7218;51.480;7.006;2024-02-21T12:06:46;10.10;;;3.13;;
14268;SDS011;7218;51.480;7.006;2024-02-21T12:09:13;6.22;;;3.30;;
14268;SDS011;7218;51.480;7.006;2024-02-21T12:11:40;6.45;;;3.08;;
14268;SDS011;7218;51.480;7.006;2024-02-21T12:14:06;6.35;;;2.95;;
14268;SDS011;7218;51.480;7.006;2024-02-21T12:16:34;7.78;;;3.30;;
14268;SDS011;7218;51.480;7.006;2024-02-21T12:19:02;7.78;;;3.30;;
14268;SDS011;7218;51.480;7.006;2024-02-21T12:21:31;5.57;;;3.05;;
14268;SDS011;7218;51.480;7.006;2024-02-21T12:24:10;9.32;;;3.70;;
14268;SDS011;7218;51.480;7.006;2024-02-21T12:26:38;7.35;;;3.03;;
14268;SDS011;7218;51.480;7.006;2024-02-21T12:29:04;8.27;;;3.08;;
14268;SDS011;7218;51.480;7.006;2024-02-21T12:31:30;7.43;;;3.03;;
14268;SDS011;7218;51.480;7.006;2024-02-21T12:33:57;7.85;;;3.10;;
14268;SDS011;7218;51.480;7.006;2024-02-21T12:36:24;9.63;;;3.35;;
14268;SDS011;7218;51.480;7.006;2024-02-21T12:38:52;10.10;;;3.33;;
14268;SDS011;7218;51.480;7.006;2024-02-21T12:41:19;8.85;;;2.72;;
14268;SDS011;7218;51.480;7.006;2024-02-21T12:43:45;8.48;;;2.97;;
14268;SDS011;7218;51.480;7.006;2024-02-21T12:46:12;8.85;;;3.03;;
14268;SDS011;7218;51.480;7.006;2024-02-21T12:48:38;9.05;;;3.10;;
14268;SDS011;7218;51.480;7.006;2024-02-21T12:51:05;7.50;;;2.67;;
14268;SDS011;7218;51.480;7.006;2024-02-21T12:53:31;7.90;;;3.03;;
14268;SDS011;7218;51.480;7.006;2024-02-21T12:56:00;5.60;;;2.75;;
14268;SDS011;7218;51.480;7.006;2024-02-21T12:58:26;9.05;;;2.75;;
14268;SDS011;7218;51.480;7.006;2024-02-21T13:00:56;6.85;;;2.80;;
14268;SDS011;7218;51.480;7.006;2024-02-21T13:03:23;6.88;;;3.00;;
14268;SDS011;7218;51.480;7.006;2024-02-21T13:05:50;7.63;;;3.05;;
14268;SDS011;7218;51.480;7.006;2024-02-21T13:08:17;7.15;;;2.55;;
14268;SDS011;7218;51.480;7.006;2024-02-21T13:10:46;4.78;;;2.30;;
14268;SDS011;7218;51.480;7.006;2024-02-21T13:13:15;8.63;;;2.83;;
14268;SDS011;7218;51.480;7.006;2024-02-21T13:15:42;10.10;;;2.72;;
14268;SDS011;7218;51.480;7.006;2024-02-21T13:18:08;7.95;;;2.97;;
14268;SDS011;7218;51.480;7.006;2024-02-21T13:20:35;8.10;;;2.53;;
14268;SDS011;7218;51.480;7.006;2024-02-21T13:23:02;5.88;;;2.55;;
14268;SDS011;7218;51.480;7.006;2024-02-21T13:25:29;11.15;;;2.63;;
14268;SDS011;7218;51.480;7.006;2024-02-21T13:27:55;6.70;;;2.40;;
14268;SDS011;7218;51.480;7.006;2024-02-21T13:30:23;5.60;;;2.00;;
14268;SDS011;7218;51.480;7.006;2024-02-21T13:32:50;8.88;;;2.83;;
14268;SDS011;7218;51.480;7.006;2024-02-21T13:35:17;5.75;;;2.58;;
14268;SDS011;7218;51.480;7.006;2024-02-21T13:37:43;7.40;;;2.53;;
14268;SDS011;7218;51.480;7.006;2024-02-21T13:40:10;8.75;;;2.50;;
14268;SDS011;7218;51.480;7.006;2024-02-21T13:42:38;6.60;;;2.42;;
14268;SDS011;7218;51.480;7.006;2024-02-21T13:45:06;8.32;;;2.60;;
14268;SDS011;7218;51.480;7.006;2024-02-21T13:47:34;6.00;;;2.28;;
14268;SDS011;7218;51.480;7.006;2024-02-21T13:50:04;6.38;;;2.50;;
14268;SDS011;7218;51.480;7.006;2024-02-21T13:52:34;5.47;;;2.42;;
14268;SDS011;7218;51.480;7.006;2024-02-21T13:55:00;6.78;;;2.50;;
14268;SDS011;7218;51.480;7.006;2024-02-21T13:57:27;8.10;;;2.50;;
14268;SDS011;7218;51.480;7.006;2024-02-21T13:59:54;7.28;;;2.38;;
14268;SDS011;7218;51.480;7.006;2024-02-21T14:02:20;8.13;;;2.38;;
14268;SDS011;7218;51.480;7.006;2024-02-21T14:04:48;5.80;;;2.55;;
14268;SDS011;7218;51.480;7.006;2024-02-21T14:07:15;7.57;;;2.83;;
14268;SDS011;7218;51.480;7.006;2024-02-21T14:09:42;11.05;;;2.88;;
14268;SDS011;7218;51.480;7.006;2024-02-21T14:12:09;5.35;;;2.60;;
14268;SDS011;7218;51.480;7.006;2024-02-21T14:14:35;7.05;;;2.90;;
14268;SDS011;7218;51.480;7.006;2024-02-21T14:17:02;5.18;;;2.35;;
14268;SDS011;7218;51.480;7.006;2024-02-21T14:19:29;7.00;;;2.80;;
14268;SDS011;7218;51.480;7.006;2024-02-21T14:21:57;7.65;;;2.55;;
14268;SDS011;7218;51.480;7.006;2024-02-21T14:24:24;7.82;;;2.80;;
14268;SDS011;7218;51.480;7.006;2024-02-21T14:26:50;4.47;;;2.20;;
14268;SDS011;7218;51.480;7.006;2024-02-21T14:29:16;6.25;;;2.42;;
14268;SDS011;7218;51.480;7.006;2024-02-21T14:31:43;4.50;;;2.00;;
14268;SDS011;7218;51.480;7.006;2024-02-21T14:34:09;7.18;;;2.28;;
14268;SDS011;7218;51.480;7.006;2024-02-21T14:36:36;9.00;;;2.65;;
14268;SDS011;7218;51.480;7.006;2024-02-21T14:39:04;6.15;;;2.60;;
14268;SDS011;7218;51.480;7.006;2024-02-21T14:41:30;8.48;;;2.60;;
14268;SDS011;7218;51.480;7.006;2024-02-21T14:43:57;6.57;;;2.53;;
14268;SDS011;7218;51.480;7.006;2024-02-21T14:46:25;5.07;;;2.45;;
14268;SDS011;7218;51.480;7.006;2024-02-21T14:48:53;8.48;;;2.40;;
14268;SDS011;7218;51.480;7.006;2024-02-21T14:51:20;8.35;;;2.58;;